createdAt,value
2023-04-19T00:00:03.889Z,985.87
2023-04-19T00:01:03.873Z,985.87
2023-04-19T00:02:03.929Z,985.78
2023-04-19T00:03:03.296Z,985.93
2023-04-19T00:04:03.340Z,985.70
2023-04-19T00:05:03.374Z,985.73
2023-04-19T00:06:03.051Z,985.76
2023-04-19T00:07:03.073Z,985.70
2023-04-19T00:08:03.163Z,985.70
2023-04-19T00:09:03.106Z,985.59
2023-04-19T00:10:03.362Z,985.67
2023-04-19T00:11:03.283Z,985.87
2023-04-19T00:12:03.234Z,985.70
2023-04-19T00:13:03.247Z,985.67
2023-04-19T00:14:03.192Z,985.59
2023-04-19T00:15:04.311Z,985.73
2023-04-19T00:16:03.036Z,985.64
2023-04-19T00:17:03.349Z,985.64
2023-04-19T00:18:03.160Z,985.78
2023-04-19T00:19:03.193Z,985.61
2023-04-19T00:20:03.061Z,985.56
2023-04-19T00:21:03.062Z,985.67
2023-04-19T00:22:03.016Z,985.53
2023-04-19T00:23:03.516Z,985.70
2023-04-19T00:24:03.575Z,985.61
2023-04-19T00:25:03.619Z,985.53
2023-04-19T00:26:03.660Z,985.67
2023-04-19T00:27:03.720Z,985.47
2023-04-19T00:28:03.681Z,985.61
2023-04-19T00:29:03.763Z,985.67
2023-04-19T00:30:03.678Z,985.41
2023-04-19T00:31:03.847Z,985.56
2023-04-19T00:32:03.818Z,985.50
2023-04-19T00:33:04.043Z,985.61
2023-04-19T00:34:03.929Z,985.53
2023-04-19T00:35:04.095Z,985.44
2023-04-19T00:36:03.094Z,985.41
2023-04-19T00:37:03.092Z,985.41
2023-04-19T00:38:03.163Z,985.53
2023-04-19T00:39:03.091Z,985.59
2023-04-19T00:40:03.441Z,985.53
2023-04-19T00:41:03.440Z,985.47
2023-04-19T00:42:03.533Z,985.50
2023-04-19T00:43:03.500Z,985.59
2023-04-19T00:44:03.487Z,985.44
2023-04-19T00:45:03.565Z,985.44
2023-04-19T00:46:03.594Z,985.53
2023-04-19T00:47:03.604Z,985.56
2023-04-19T00:48:03.749Z,985.36
2023-04-19T00:49:03.587Z,985.53
2023-04-19T00:50:03.755Z,985.42
2023-04-19T00:51:04.350Z,985.53
2023-04-19T00:52:03.200Z,985.47
2023-04-19T00:53:03.878Z,985.36
2023-04-19T00:54:03.915Z,985.56
2023-04-19T00:55:02.939Z,985.42
2023-04-19T00:56:02.958Z,985.50
2023-04-19T00:57:03.255Z,985.44
2023-04-19T00:58:04.112Z,985.47
2023-04-19T00:59:03.920Z,985.39
2023-04-19T01:00:03.303Z,985.42
2023-04-19T01:01:03.446Z,985.62
2023-04-19T01:02:03.660Z,985.47
2023-04-19T01:03:03.814Z,985.42
2023-04-19T01:04:03.892Z,985.42
2023-04-19T01:05:03.784Z,985.47
2023-04-19T01:06:03.774Z,985.36
2023-04-19T01:07:03.755Z,985.42
2023-04-19T01:08:03.758Z,985.42
2023-04-19T01:09:03.794Z,985.42
2023-04-19T01:10:03.832Z,985.39
2023-04-19T01:11:03.750Z,985.45
2023-04-19T01:12:03.857Z,985.48
2023-04-19T01:13:03.757Z,985.29
2023-04-19T01:14:03.782Z,985.29
2023-04-19T01:15:03.768Z,985.48
2023-04-19T01:16:03.865Z,985.45
2023-04-19T01:17:03.884Z,985.50
2023-04-19T01:18:03.875Z,985.45
2023-04-19T01:19:03.842Z,985.36
2023-04-19T01:20:03.836Z,985.26
2023-04-19T01:21:03.836Z,985.39
2023-04-19T01:22:03.803Z,985.20
2023-04-19T01:23:03.865Z,985.36
2023-04-19T01:24:03.012Z,985.26
2023-04-19T01:25:02.926Z,985.26
2023-04-19T01:26:03.036Z,985.34
2023-04-19T01:27:03.027Z,985.29
2023-04-19T01:28:03.954Z,985.39
2023-04-19T01:29:02.901Z,985.39
2023-04-19T01:30:03.071Z,985.26
2023-04-19T01:31:03.985Z,985.45
2023-04-19T01:32:02.959Z,985.34
2023-04-19T01:33:03.099Z,985.23
2023-04-19T01:34:02.975Z,985.29
2023-04-19T01:35:03.000Z,985.42
2023-04-19T01:36:03.119Z,985.39
2023-04-19T01:37:03.040Z,985.34
2023-04-19T01:38:03.732Z,985.37
2023-04-19T01:39:03.716Z,985.18
2023-04-19T01:40:03.733Z,985.29
2023-04-19T01:41:03.706Z,985.34
2023-04-19T01:42:03.733Z,985.42
2023-04-19T01:43:03.749Z,985.42
2023-04-19T01:44:03.881Z,985.34
2023-04-19T01:45:03.808Z,985.26
2023-04-19T01:46:03.779Z,985.18
2023-04-19T01:47:03.931Z,985.37
2023-04-19T01:48:03.879Z,985.24
2023-04-19T01:49:03.832Z,985.26
2023-04-19T01:50:03.858Z,985.37
2023-04-19T01:51:02.936Z,985.29
2023-04-19T01:52:03.296Z,985.29
2023-04-19T01:53:03.362Z,985.29
2023-04-19T01:54:03.321Z,985.29
2023-04-19T01:55:03.301Z,985.43
2023-04-19T01:56:03.325Z,985.18
2023-04-19T01:57:03.358Z,985.29
2023-04-19T01:58:03.326Z,985.15
2023-04-19T01:59:03.352Z,985.24
2023-04-19T02:00:03.369Z,985.46
2023-04-19T02:01:03.410Z,985.34
2023-04-19T02:02:03.632Z,985.30
2023-04-19T02:03:03.738Z,985.24
2023-04-19T02:04:03.834Z,985.27
2023-04-19T02:05:03.442Z,985.37
2023-04-19T02:06:03.422Z,985.30
2023-04-19T02:07:03.429Z,985.24
2023-04-19T02:08:03.459Z,985.24
2023-04-19T02:09:03.538Z,985.27
2023-04-19T02:10:03.420Z,985.07
2023-04-19T02:11:03.483Z,985.18
2023-04-19T02:12:03.468Z,985.19
2023-04-19T02:13:03.459Z,985.24
2023-04-19T02:14:03.456Z,985.21
2023-04-19T02:15:03.528Z,985.19
2023-04-19T02:16:03.617Z,985.16
2023-04-19T02:17:03.536Z,985.13
2023-04-19T02:18:03.811Z,985.10
2023-04-19T02:19:03.642Z,985.07
2023-04-19T02:20:03.662Z,985.27
2023-04-19T02:21:03.538Z,985.22
2023-04-19T02:22:03.601Z,985.22
2023-04-19T02:23:03.585Z,985.22
2023-04-19T02:24:03.677Z,985.22
2023-04-19T02:25:03.625Z,985.30
2023-04-19T02:26:03.591Z,985.11
2023-04-19T02:27:03.675Z,985.13
2023-04-19T02:28:03.620Z,985.08
2023-04-19T02:29:07.006Z,985.14
2023-04-19T02:30:03.685Z,985.22
2023-04-19T02:31:03.713Z,985.36
2023-04-19T02:32:03.845Z,985.17
2023-04-19T02:33:03.786Z,985.19
2023-04-19T02:34:03.732Z,985.20
2023-04-19T02:35:03.812Z,985.14
2023-04-19T02:36:03.927Z,985.03
2023-04-19T02:37:03.872Z,985.28
2023-04-19T02:38:03.966Z,985.23
2023-04-19T02:39:03.024Z,985.20
2023-04-19T02:40:02.931Z,985.31
2023-04-19T02:41:03.006Z,985.23
2023-04-19T02:42:02.974Z,985.11
2023-04-19T02:43:02.993Z,985.25
2023-04-19T02:44:02.936Z,985.20
2023-04-19T02:45:03.936Z,985.11
2023-04-19T02:46:03.933Z,985.26
2023-04-19T02:47:03.841Z,985.28
2023-04-19T02:48:03.942Z,985.17
2023-04-19T02:49:03.938Z,985.17
2023-04-19T02:50:03.027Z,985.14
2023-04-19T02:51:02.947Z,985.17
2023-04-19T02:52:02.954Z,985.12
2023-04-19T02:53:02.996Z,985.09
2023-04-19T02:54:02.990Z,985.23
2023-04-19T02:55:03.153Z,985.18
2023-04-19T02:56:03.037Z,985.26
2023-04-19T02:57:03.247Z,985.29
2023-04-19T02:58:03.095Z,985.09
2023-04-19T02:59:03.154Z,985.34
2023-04-19T03:00:03.084Z,985.29
2023-04-19T03:01:03.958Z,985.26
2023-04-19T03:02:03.850Z,985.42
2023-04-19T03:03:04.071Z,985.29
2023-04-19T03:04:03.861Z,985.29
2023-04-19T03:05:03.938Z,985.29
2023-04-19T03:06:03.902Z,985.21
2023-04-19T03:07:03.881Z,985.29
2023-04-19T03:08:02.956Z,985.34
2023-04-19T03:09:03.034Z,985.27
2023-04-19T03:10:03.090Z,985.37
2023-04-19T03:11:02.962Z,985.24
2023-04-19T03:12:03.189Z,985.43
2023-04-19T03:13:03.145Z,985.18
2023-04-19T03:14:03.091Z,985.27
2023-04-19T03:15:03.067Z,985.24
2023-04-19T03:16:03.155Z,985.30
2023-04-19T03:17:03.146Z,985.19
2023-04-19T03:18:03.203Z,985.19
2023-04-19T03:19:03.198Z,985.30
2023-04-19T03:20:03.184Z,985.30
2023-04-19T03:21:03.236Z,985.16
2023-04-19T03:22:03.332Z,985.25
2023-04-19T03:23:03.291Z,985.19
2023-04-19T03:24:03.232Z,985.13
2023-04-19T03:25:03.226Z,985.19
2023-04-19T03:26:03.244Z,985.13
2023-04-19T03:27:03.226Z,985.19
2023-04-19T03:28:03.205Z,985.25
2023-04-19T03:29:03.353Z,985.11
2023-04-19T03:30:03.391Z,985.31
2023-04-19T03:31:03.514Z,985.14
2023-04-19T03:32:03.342Z,985.11
2023-04-19T03:33:03.494Z,985.08
2023-04-19T03:34:03.275Z,985.22
2023-04-19T03:35:03.385Z,985.22
2023-04-19T03:36:03.291Z,985.05
2023-04-19T03:37:05.920Z,985.05
2023-04-19T03:38:03.809Z,985.25
2023-04-19T03:39:03.876Z,985.17
2023-04-19T03:40:03.887Z,985.20
2023-04-19T03:41:02.932Z,985.11
2023-04-19T03:42:02.897Z,985.03
2023-04-19T03:43:03.031Z,985.14
2023-04-19T03:44:02.966Z,985.23
2023-04-19T03:45:02.922Z,985.14
2023-04-19T03:46:03.034Z,985.17
2023-04-19T03:47:02.903Z,985.09
2023-04-19T03:48:03.970Z,985.00
2023-04-19T03:49:03.860Z,985.23
2023-04-19T03:50:03.873Z,985.17
2023-04-19T03:51:03.824Z,985.12
2023-04-19T03:52:03.747Z,985.15
2023-04-19T03:53:03.817Z,985.17
2023-04-19T03:54:03.928Z,985.20
2023-04-19T03:55:03.870Z,985.37
2023-04-19T03:56:02.952Z,985.20
2023-04-19T03:57:02.968Z,985.23
2023-04-19T03:58:03.002Z,985.21
2023-04-19T03:59:03.171Z,985.09
2023-04-19T04:00:03.044Z,985.29
2023-04-19T04:01:03.153Z,985.09
2023-04-19T04:02:03.285Z,985.15
2023-04-19T04:03:03.580Z,985.18
2023-04-19T04:04:05.604Z,985.09
2023-04-19T04:05:03.716Z,985.12
2023-04-19T04:06:03.362Z,984.98
2023-04-19T04:07:03.436Z,984.93
2023-04-19T04:08:03.348Z,985.15
2023-04-19T04:09:03.370Z,985.01
2023-04-19T04:10:03.431Z,984.90
2023-04-19T04:11:03.428Z,985.13
2023-04-19T04:12:03.502Z,985.07
2023-04-19T04:13:03.617Z,985.13
2023-04-19T04:14:03.773Z,985.21
2023-04-19T04:15:03.780Z,985.10
2023-04-19T04:16:03.868Z,985.10
2023-04-19T04:17:03.786Z,985.07
2023-04-19T04:18:03.958Z,985.27
2023-04-19T04:19:03.780Z,985.21
2023-04-19T04:20:03.678Z,985.10
2023-04-19T04:21:03.742Z,985.21
2023-04-19T04:22:03.902Z,985.19
2023-04-19T04:23:03.928Z,985.10
2023-04-19T04:24:03.863Z,985.16
2023-04-19T04:25:03.260Z,985.10
2023-04-19T04:26:03.250Z,985.21
2023-04-19T04:27:03.214Z,985.24
2023-04-19T04:28:03.350Z,985.24
2023-04-19T04:29:03.326Z,985.08
2023-04-19T04:30:03.362Z,985.25
2023-04-19T04:31:03.449Z,985.19
2023-04-19T04:32:03.522Z,985.22
2023-04-19T04:33:03.603Z,985.16
2023-04-19T04:34:03.622Z,985.25
2023-04-19T04:35:03.648Z,985.14
2023-04-19T04:36:03.539Z,985.19
2023-04-19T04:37:03.616Z,985.16
2023-04-19T04:38:23.943Z,985.11
2023-04-19T04:39:03.656Z,985.14
2023-04-19T04:40:03.769Z,985.22
2023-04-19T04:41:03.835Z,985.22
2023-04-19T04:42:03.588Z,985.25
2023-04-19T04:43:03.462Z,985.14
2023-04-19T04:44:12.390Z,985.31
2023-04-19T04:45:03.454Z,985.25
2023-04-19T04:46:03.830Z,985.17
2023-04-19T04:47:03.654Z,985.25
2023-04-19T04:48:03.898Z,985.23
2023-04-19T04:49:03.779Z,985.17
2023-04-19T04:50:03.054Z,985.31
2023-04-19T04:51:03.231Z,985.47
2023-04-19T04:52:03.402Z,985.26
2023-04-19T04:53:03.492Z,985.39
2023-04-19T04:54:03.606Z,985.17
2023-04-19T04:55:03.590Z,985.45
2023-04-19T04:56:03.574Z,985.17
2023-04-19T04:57:03.728Z,985.18
2023-04-19T04:58:03.641Z,985.09
2023-04-19T04:59:03.759Z,985.21
2023-04-19T05:00:03.825Z,985.26
2023-04-19T05:01:04.314Z,985.26
2023-04-19T05:02:03.938Z,985.43
2023-04-19T05:03:03.814Z,985.34
2023-04-19T05:04:03.188Z,985.18
2023-04-19T05:05:03.112Z,985.29
2023-04-19T05:06:03.319Z,985.37
2023-04-19T05:07:03.162Z,985.13
2023-04-19T05:08:03.289Z,985.37
2023-04-19T05:09:03.344Z,985.37
2023-04-19T05:10:03.436Z,985.40
2023-04-19T05:11:03.441Z,985.49
2023-04-19T05:12:03.561Z,985.35
2023-04-19T05:13:03.357Z,985.37
2023-04-19T05:14:03.477Z,985.27
2023-04-19T05:15:03.456Z,985.19
2023-04-19T05:16:03.628Z,985.35
2023-04-19T05:17:07.041Z,985.40
2023-04-19T05:18:03.599Z,985.35
2023-04-19T05:19:03.746Z,985.30
2023-04-19T05:20:03.588Z,985.46
2023-04-19T05:21:03.577Z,985.30
2023-04-19T05:22:03.963Z,985.30
2023-04-19T05:23:03.783Z,985.30
2023-04-19T05:24:03.852Z,985.38
2023-04-19T05:25:03.961Z,985.30
2023-04-19T05:26:03.495Z,985.22
2023-04-19T05:27:03.567Z,985.27
2023-04-19T05:28:03.599Z,985.44
2023-04-19T05:29:03.764Z,985.35
2023-04-19T05:30:03.871Z,985.30
2023-04-19T05:31:03.880Z,985.27
2023-04-19T05:32:03.804Z,985.30
2023-04-19T05:33:03.863Z,985.30
2023-04-19T05:34:03.722Z,985.41
2023-04-19T05:35:03.871Z,985.38
2023-04-19T05:36:03.858Z,985.41
2023-04-19T05:37:03.989Z,985.22
2023-04-19T05:38:04.158Z,985.27
2023-04-19T05:39:03.900Z,985.25
2023-04-19T05:40:03.859Z,985.25
2023-04-19T05:41:03.967Z,985.38
2023-04-19T05:42:03.024Z,985.27
2023-04-19T05:43:03.082Z,985.25
2023-04-19T05:44:02.963Z,985.35
2023-04-19T05:45:06.370Z,985.27
2023-04-19T05:46:03.156Z,985.25
2023-04-19T05:47:03.123Z,985.19
2023-04-19T05:48:03.348Z,985.41
2023-04-19T05:49:03.225Z,985.27
2023-04-19T05:50:03.293Z,985.27
2023-04-19T05:51:03.363Z,985.13
2023-04-19T05:52:03.267Z,985.19
2023-04-19T05:53:03.300Z,985.13
2023-04-19T05:54:03.266Z,985.16
2023-04-19T05:55:03.288Z,985.16
2023-04-19T05:56:03.209Z,985.41
2023-04-19T05:57:03.117Z,985.38
2023-04-19T05:58:03.142Z,985.41
2023-04-19T05:59:03.120Z,985.38
2023-04-19T06:00:03.559Z,985.30
2023-04-19T06:01:03.318Z,985.38
2023-04-19T06:02:03.508Z,985.27
2023-04-19T06:03:03.619Z,985.30
2023-04-19T06:04:03.720Z,985.25
2023-04-19T06:05:11.152Z,985.38
2023-04-19T06:06:03.504Z,985.35
2023-04-19T06:07:08.119Z,985.41
2023-04-19T06:08:03.908Z,985.35
2023-04-19T06:09:03.410Z,985.44
2023-04-19T06:10:03.409Z,985.41
2023-04-19T06:11:26.844Z,985.55
2023-04-19T06:12:03.427Z,985.52
2023-04-19T06:13:03.492Z,985.47
2023-04-19T06:14:03.549Z,985.52
2023-04-19T06:15:03.700Z,985.50
2023-04-19T06:16:03.716Z,985.50
2023-04-19T06:17:03.772Z,985.61
2023-04-19T06:18:03.760Z,985.55
2023-04-19T06:19:03.689Z,985.50
2023-04-19T06:20:03.696Z,985.61
2023-04-19T06:21:03.801Z,985.61
2023-04-19T06:22:03.918Z,985.58
2023-04-19T06:23:02.987Z,985.58
2023-04-19T06:24:03.016Z,985.53
2023-04-19T06:25:03.107Z,985.75
2023-04-19T06:26:03.123Z,985.64
2023-04-19T06:27:03.148Z,985.61
2023-04-19T06:28:03.218Z,985.53
2023-04-19T06:29:03.186Z,985.50
2023-04-19T06:30:03.138Z,985.58
2023-04-19T06:31:03.279Z,985.55
2023-04-19T06:32:03.336Z,985.58
2023-04-19T06:33:03.461Z,985.41
2023-04-19T06:34:03.313Z,985.41
2023-04-19T06:35:03.410Z,985.58
2023-04-19T06:36:03.466Z,985.67
2023-04-19T06:37:03.354Z,985.61
2023-04-19T06:38:03.286Z,985.55
2023-04-19T06:39:03.242Z,985.50
2023-04-19T06:40:03.291Z,985.75
2023-04-19T06:41:03.475Z,985.64
2023-04-19T06:42:03.397Z,985.55
2023-04-19T06:43:06.267Z,985.66
2023-04-19T06:44:03.581Z,985.55
2023-04-19T06:45:03.569Z,985.64
2023-04-19T06:46:03.554Z,985.64
2023-04-19T06:47:03.621Z,985.52
2023-04-19T06:48:03.831Z,985.52
2023-04-19T06:49:03.709Z,985.55
2023-04-19T06:50:03.691Z,985.61
2023-04-19T06:51:03.708Z,985.63
2023-04-19T06:52:03.807Z,985.63
2023-04-19T06:53:05.188Z,985.69
2023-04-19T06:54:03.785Z,985.69
2023-04-19T06:55:03.804Z,985.69
2023-04-19T06:56:03.908Z,985.75
2023-04-19T06:57:03.978Z,985.89
2023-04-19T06:58:02.951Z,985.86
2023-04-19T06:59:02.997Z,985.86
2023-04-19T07:00:03.041Z,985.89
2023-04-19T07:01:03.284Z,985.72
2023-04-19T07:02:03.453Z,985.77
2023-04-19T07:03:03.449Z,985.77
2023-04-19T07:04:03.294Z,985.86
2023-04-19T07:05:03.208Z,985.86
2023-04-19T07:06:03.302Z,985.92
2023-04-19T07:07:03.212Z,985.94
2023-04-19T07:08:03.293Z,986.00
2023-04-19T07:09:03.288Z,986.03
2023-04-19T07:10:03.160Z,985.89
2023-04-19T07:11:03.329Z,985.92
2023-04-19T07:12:03.247Z,985.94
2023-04-19T07:13:03.552Z,985.89
2023-04-19T07:14:03.216Z,985.92
2023-04-19T07:15:04.061Z,985.91
2023-04-19T07:16:03.634Z,985.86
2023-04-19T07:17:03.369Z,985.97
2023-04-19T07:18:03.531Z,985.89
2023-04-19T07:19:03.541Z,985.94
2023-04-19T07:20:03.474Z,985.94
2023-04-19T07:21:03.416Z,985.83
2023-04-19T07:22:03.427Z,985.86
2023-04-19T07:23:03.313Z,985.80
2023-04-19T07:24:03.386Z,985.80
2023-04-19T07:25:03.788Z,985.94
2023-04-19T07:26:03.551Z,985.85
2023-04-19T07:27:03.498Z,985.69
2023-04-19T07:28:03.672Z,985.74
2023-04-19T07:29:03.645Z,985.68
2023-04-19T07:30:03.714Z,985.71
2023-04-19T07:31:02.979Z,985.91
2023-04-19T07:32:03.092Z,985.85
2023-04-19T07:33:03.918Z,985.57
2023-04-19T07:34:03.783Z,985.76
2023-04-19T07:35:03.792Z,985.88
2023-04-19T07:36:03.715Z,985.79
2023-04-19T07:37:03.643Z,985.79
2023-04-19T07:38:03.702Z,985.70
2023-04-19T07:39:03.839Z,985.76
2023-04-19T07:40:03.884Z,985.81
2023-04-19T07:41:03.771Z,985.75
2023-04-19T07:42:03.939Z,985.69
2023-04-19T07:43:03.972Z,985.61
2023-04-19T07:44:03.830Z,985.72
2023-04-19T07:45:03.951Z,985.63
2023-04-19T07:46:03.017Z,985.72
2023-04-19T07:47:02.995Z,985.69
2023-04-19T07:48:03.087Z,985.80
2023-04-19T07:49:02.985Z,985.74
2023-04-19T07:50:03.103Z,985.83
2023-04-19T07:51:03.130Z,985.68
2023-04-19T07:52:03.039Z,985.68
2023-04-19T07:53:03.072Z,985.74
2023-04-19T07:54:03.136Z,985.65
2023-04-19T07:55:02.979Z,985.79
2023-04-19T07:56:03.046Z,985.85
2023-04-19T07:57:03.058Z,985.85
2023-04-19T07:58:02.977Z,985.87
2023-04-19T07:59:09.498Z,985.93
2023-04-19T08:00:02.987Z,986.07
2023-04-19T08:01:03.295Z,985.98
2023-04-19T08:02:03.147Z,985.98
2023-04-19T08:03:03.364Z,986.09
2023-04-19T08:04:04.132Z,986.07
2023-04-19T08:05:03.293Z,985.95
2023-04-19T08:06:03.148Z,986.04
2023-04-19T08:07:03.081Z,986.09
2023-04-19T08:08:03.185Z,986.09
2023-04-19T08:09:03.054Z,986.09
2023-04-19T08:10:03.169Z,986.18
2023-04-19T08:11:03.093Z,986.37
2023-04-19T08:12:03.125Z,986.20
2023-04-19T08:13:07.044Z,986.20
2023-04-19T08:14:27.000Z,986.17
2023-04-19T08:15:37.426Z,986.23
2023-04-19T08:17:23.245Z,986.16
2023-04-19T08:18:03.434Z,986.30
2023-04-19T08:19:03.475Z,986.30
2023-04-19T08:20:03.471Z,986.24
2023-04-19T08:21:03.436Z,986.12
2023-04-19T08:22:03.571Z,986.12
2023-04-19T08:23:22.651Z,986.15
2023-04-19T08:24:03.584Z,986.31
2023-04-19T08:25:03.747Z,986.23
2023-04-19T08:26:03.625Z,986.25
2023-04-19T08:27:03.719Z,986.17
2023-04-19T08:28:03.647Z,986.39
2023-04-19T08:29:03.788Z,986.22
2023-04-19T08:30:03.779Z,986.30
2023-04-19T08:31:03.658Z,986.27
2023-04-19T08:32:03.974Z,986.24
2023-04-19T08:33:03.798Z,986.39
2023-04-19T08:34:03.718Z,986.41
2023-04-19T08:35:03.760Z,986.30
2023-04-19T08:36:03.762Z,986.50
2023-04-19T08:37:05.292Z,986.50
2023-04-19T08:38:04.689Z,986.41
2023-04-19T08:39:15.014Z,986.44
2023-04-19T08:40:02.993Z,986.46
2023-04-19T08:41:03.114Z,986.35
2023-04-19T08:42:13.026Z,986.38
2023-04-19T08:43:03.053Z,986.46
2023-04-19T08:44:03.974Z,986.48
2023-04-19T08:45:28.057Z,986.34
2023-04-19T08:46:03.067Z,986.40
2023-04-19T08:47:03.001Z,986.61
2023-04-19T08:48:04.071Z,986.54
2023-04-19T08:49:02.930Z,986.51
2023-04-19T08:50:11.653Z,986.54
2023-04-19T08:51:06.229Z,986.62
2023-04-19T08:52:03.901Z,986.56
2023-04-19T08:53:24.439Z,986.73
2023-04-19T08:54:02.930Z,986.70
2023-04-19T08:55:03.010Z,986.67
2023-04-19T08:57:03.202Z,986.67
2023-04-19T08:58:05.874Z,986.76
2023-04-19T08:59:18.923Z,986.64
2023-04-19T09:00:03.221Z,986.64
2023-04-19T09:01:03.391Z,986.84
2023-04-19T09:02:03.420Z,986.81
2023-04-19T09:03:03.752Z,986.78
2023-04-19T09:04:35.360Z,986.69
2023-04-19T09:05:03.684Z,986.75
2023-04-19T09:06:03.849Z,986.56
2023-04-19T09:07:03.270Z,986.61
2023-04-19T09:08:03.484Z,986.53
2023-04-19T09:09:03.471Z,986.66
2023-04-19T09:10:04.983Z,986.75
2023-04-19T09:11:03.356Z,986.72
2023-04-19T09:12:03.447Z,986.75
2023-04-19T09:13:03.447Z,986.57
2023-04-19T09:14:03.524Z,986.60
2023-04-19T09:15:03.649Z,986.63
2023-04-19T09:16:03.957Z,986.57
2023-04-19T09:17:03.846Z,986.74
2023-04-19T09:18:03.078Z,986.77
2023-04-19T09:19:22.927Z,986.66
2023-04-19T09:20:03.069Z,986.60
2023-04-19T09:21:03.714Z,986.71
2023-04-19T09:22:03.711Z,986.53
2023-04-19T09:23:03.829Z,986.57
2023-04-19T09:24:04.181Z,986.60
2023-04-19T09:25:52.750Z,986.68
2023-04-19T09:26:22.608Z,986.77
2023-04-19T09:27:03.223Z,986.57
2023-04-19T09:28:03.267Z,986.68
2023-04-19T09:29:03.403Z,986.60
2023-04-19T09:30:03.669Z,986.52
2023-04-19T09:31:35.705Z,986.74
2023-04-19T09:32:03.842Z,986.49
2023-04-19T09:33:03.223Z,986.55
2023-04-19T09:34:03.173Z,986.49
2023-04-19T09:35:03.051Z,986.40
2023-04-19T09:36:02.996Z,986.46
2023-04-19T09:37:21.225Z,986.48
2023-04-19T09:38:07.225Z,986.46
2023-04-19T09:39:03.084Z,986.48
2023-04-19T09:40:03.143Z,986.37
2023-04-19T09:41:03.190Z,986.28
2023-04-19T09:42:03.048Z,986.42
2023-04-19T09:45:30.743Z,986.22
2023-04-19T09:46:03.109Z,986.19
2023-04-19T09:47:03.271Z,986.13
2023-04-19T09:48:03.793Z,986.21
2023-04-19T09:49:20.293Z,986.33
2023-04-19T09:50:22.387Z,986.36
2023-04-19T09:51:10.675Z,986.42
2023-04-19T09:52:03.501Z,986.39
2023-04-19T09:53:03.537Z,986.42
2023-04-19T09:54:03.555Z,986.53
2023-04-19T09:55:18.087Z,986.33
2023-04-19T09:56:04.803Z,986.42
2023-04-19T09:57:03.698Z,986.45
2023-04-19T09:58:03.112Z,986.31
2023-04-19T09:59:22.093Z,986.33
2023-04-19T10:00:03.111Z,986.36
2023-04-19T10:01:16.059Z,986.51
2023-04-19T10:02:03.262Z,986.64
2023-04-19T10:03:03.195Z,986.40
2023-04-19T10:04:33.235Z,986.54
2023-04-19T10:05:22.127Z,986.31
2023-04-19T10:06:27.136Z,986.37
2023-04-19T10:08:03.323Z,986.51
2023-04-19T10:09:03.327Z,986.48
2023-04-19T10:10:24.041Z,986.42
2023-04-19T10:11:03.418Z,986.36
2023-04-19T10:13:18.732Z,986.42
2023-04-19T10:14:03.359Z,986.45
2023-04-19T10:15:03.420Z,986.56
2023-04-19T10:16:19.883Z,986.54
2023-04-19T10:17:03.611Z,986.34
2023-04-19T10:18:03.640Z,986.40
2023-04-19T10:19:03.511Z,986.29
2023-04-19T10:20:03.630Z,986.56
2023-04-19T10:21:03.600Z,986.40
2023-04-19T10:22:03.584Z,986.46
2023-04-19T10:23:03.733Z,986.40
2023-04-19T10:24:02.932Z,986.23
2023-04-19T10:25:03.038Z,986.35
2023-04-19T10:26:03.113Z,986.23
2023-04-19T10:27:03.134Z,986.20
2023-04-19T10:28:03.218Z,986.17
2023-04-19T10:29:03.179Z,986.14
2023-04-19T10:30:05.106Z,986.25
2023-04-19T10:31:03.228Z,986.11
2023-04-19T10:32:03.357Z,986.13
2023-04-19T10:33:03.320Z,986.16
2023-04-19T10:34:03.239Z,986.21
2023-04-19T10:35:03.206Z,986.24
2023-04-19T10:36:03.225Z,985.95
2023-04-19T10:37:03.560Z,985.98
2023-04-19T10:38:03.075Z,985.92
2023-04-19T10:39:03.154Z,986.03
2023-04-19T10:40:03.223Z,986.00
2023-04-19T10:41:03.181Z,985.86
2023-04-19T10:42:03.161Z,985.89
2023-04-19T10:43:03.064Z,985.91
2023-04-19T10:44:03.034Z,985.89
2023-04-19T10:45:03.023Z,985.86
2023-04-19T10:46:03.130Z,985.83
2023-04-19T10:47:03.019Z,985.95
2023-04-19T10:48:03.251Z,985.95
2023-04-19T10:49:03.177Z,985.95
2023-04-19T10:50:03.238Z,985.78
2023-04-19T10:51:03.299Z,985.72
2023-04-19T10:52:03.257Z,985.81
2023-04-19T10:53:03.241Z,985.84
2023-04-19T10:54:03.213Z,985.81
2023-04-19T10:55:03.345Z,985.73
2023-04-19T10:56:03.298Z,985.75
2023-04-19T10:57:03.335Z,985.73
2023-04-19T10:58:03.544Z,985.61
2023-04-19T10:59:03.598Z,985.87
2023-04-19T11:00:03.639Z,985.64
2023-04-19T11:01:03.779Z,985.79
2023-04-19T11:02:04.087Z,985.96
2023-04-19T11:03:04.219Z,985.82
2023-04-19T11:04:04.259Z,985.59
2023-04-19T11:05:03.917Z,985.67
2023-04-19T11:06:02.963Z,985.56
2023-04-19T11:07:03.057Z,985.62
2023-04-19T11:08:03.005Z,985.47
2023-04-19T11:09:03.742Z,985.79
2023-04-19T11:10:03.804Z,985.68
2023-04-19T11:11:03.912Z,985.76
2023-04-19T11:12:03.879Z,985.65
2023-04-19T11:13:03.952Z,985.76
2023-04-19T11:14:03.810Z,985.70
2023-04-19T11:15:03.975Z,985.65
2023-04-19T11:16:03.939Z,985.64
2023-04-19T11:17:03.274Z,985.84
2023-04-19T11:18:13.339Z,985.53
2023-04-19T11:19:03.116Z,985.44
2023-04-19T11:20:03.069Z,985.36
2023-04-19T11:21:03.195Z,985.59
2023-04-19T11:22:03.123Z,985.47
2023-04-19T11:23:03.252Z,985.53
2023-04-19T11:24:03.198Z,985.59
2023-04-19T11:25:03.261Z,985.47
2023-04-19T11:26:03.205Z,985.59
2023-04-19T11:27:03.342Z,985.50
2023-04-19T11:28:03.411Z,985.39
2023-04-19T11:29:03.058Z,985.44
2023-04-19T11:30:02.982Z,985.47
2023-04-19T11:31:03.232Z,985.45
2023-04-19T11:32:03.102Z,985.45
2023-04-19T11:33:03.449Z,985.39
2023-04-19T11:34:03.455Z,985.39
2023-04-19T11:35:03.921Z,985.37
2023-04-19T11:36:02.952Z,985.42
2023-04-19T11:37:02.998Z,985.34
2023-04-19T11:38:03.120Z,985.26
2023-04-19T11:39:03.027Z,985.20
2023-04-19T11:40:05.469Z,985.17
2023-04-19T11:41:03.129Z,985.14
2023-04-19T11:42:03.259Z,985.19
2023-04-19T11:43:03.153Z,985.14
2023-04-19T11:44:03.135Z,985.16
2023-04-19T11:45:03.336Z,985.25
2023-04-19T11:46:03.268Z,985.16
2023-04-19T11:47:03.478Z,985.08
2023-04-19T11:48:03.528Z,985.14
2023-04-19T11:49:03.510Z,985.05
2023-04-19T11:50:03.600Z,985.17
2023-04-19T11:51:03.502Z,985.08
2023-04-19T11:52:06.526Z,985.17
2023-04-19T11:53:03.684Z,985.17
2023-04-19T11:54:03.571Z,985.36
2023-04-19T11:55:03.588Z,985.06
2023-04-19T11:56:03.740Z,985.11
2023-04-19T11:57:03.885Z,985.17
2023-04-19T11:58:02.937Z,985.14
2023-04-19T11:59:03.073Z,985.11
2023-04-19T12:00:03.224Z,985.02
2023-04-19T12:01:03.430Z,984.96
2023-04-19T12:02:03.402Z,984.93
2023-04-19T12:03:03.717Z,985.11
2023-04-19T12:04:03.568Z,985.05
2023-04-19T12:05:03.804Z,985.13
2023-04-19T12:06:03.505Z,985.05
2023-04-19T12:07:03.413Z,984.96
2023-04-19T12:08:03.316Z,985.11
2023-04-19T12:09:03.335Z,985.11
2023-04-19T12:10:03.400Z,985.08
2023-04-19T12:11:03.498Z,985.05
2023-04-19T12:12:03.531Z,985.02
2023-04-19T12:13:03.603Z,985.16
2023-04-19T12:14:03.650Z,985.05
2023-04-19T12:15:03.529Z,985.05
2023-04-19T12:16:03.651Z,985.11
2023-04-19T12:17:03.802Z,985.11
2023-04-19T12:18:03.841Z,984.99
2023-04-19T12:19:03.710Z,985.02
2023-04-19T12:20:03.882Z,985.20
2023-04-19T12:21:03.454Z,985.08
2023-04-19T12:22:03.361Z,985.05
2023-04-19T12:23:03.303Z,985.08
2023-04-19T12:24:03.478Z,985.05
2023-04-19T12:25:03.497Z,985.08
2023-04-19T12:26:03.503Z,985.08
2023-04-19T12:27:04.159Z,985.02
2023-04-19T12:28:03.460Z,984.94
2023-04-19T12:29:03.551Z,984.91
2023-04-19T12:30:03.443Z,984.88
2023-04-19T12:31:03.465Z,984.85
2023-04-19T12:32:03.485Z,984.77
2023-04-19T12:33:03.654Z,984.77
2023-04-19T12:34:04.348Z,984.74